TimeCDT,TemperatureF,Dew PointF,Humidity,Sea Level PressureIn,VisibilityMPH,Wind Direction,Wind SpeedMPH,Gust SpeedMPH,PrecipitationIn,Events,Conditions,WindDirDegrees,DateUTC
12:53 AM,66.0,37.9,36,29.95,5.0,North,10.4,-,N/A,,Haze,360,2011-10-18 05:53:00
1:43 AM,62.6,37.4,39,30.13,10.0,North,8.1,-,N/A,,Overcast,350,2011-10-18 06:43:00
1:53 AM,63.0,37.9,40,29.99,10.0,North,10.4,-,N/A,,Overcast,360,2011-10-18 06:53:00
2:53 AM,60.1,37.9,44,30.03,10.0,North,12.7,-,N/A,,Overcast,360,2011-10-18 07:53:00
3:53 AM,57.0,37.9,49,30.05,10.0,NNW,6.9,-,N/A,,Clear,340,2011-10-18 08:53:00
4:53 AM,54.0,37.0,53,30.06,10.0,North,4.6,-,N/A,,Clear,350,2011-10-18 09:53:00
5:53 AM,53.1,37.9,57,30.09,10.0,North,10.4,-,N/A,,Clear,360,2011-10-18 10:53:00
6:53 AM,51.1,37.0,59,30.12,10.0,North,10.4,-,N/A,,Clear,360,2011-10-18 11:53:00
7:53 AM,48.9,36.0,61,30.16,10.0,North,6.9,-,N/A,,Clear,350,2011-10-18 12:53:00
8:53 AM,50.0,37.0,61,30.20,10.0,North,8.1,-,N/A,,Clear,350,2011-10-18 13:53:00
9:53 AM,53.1,37.0,55,30.23,10.0,North,12.7,-,N/A,,Clear,350,2011-10-18 14:53:00
10:53 AM,55.9,37.0,49,30.23,10.0,North,10.4,-,N/A,,Partly Cloudy,360,2011-10-18 15:53:00
12:53 PM,62.1,36.0,38,30.19,10.0,NNW,13.8,20.7,N/A,,Clear,330,2011-10-18 17:53:00
1:53 PM,64.0,33.1,31,30.17,10.0,North,13.8,25.3,N/A,,Clear,350,2011-10-18 18:53:00
2:53 PM,64.9,32.0,29,30.15,10.0,NNW,15.0,25.3,N/A,,Clear,340,2011-10-18 19:53:00
4:53 PM,66.9,28.9,24,30.13,10.0,North,8.1,18.4,N/A,,Clear,10,2011-10-18 21:53:00
5:53 PM,66.9,25.0,21,30.12,10.0,NNW,9.2,20.7,N/A,,Clear,340,2011-10-18 22:53:00
6:53 PM,64.9,24.1,21,30.14,10.0,NNE,11.5,-,N/A,,Clear,30,2011-10-18 23:53:00
7:53 PM,60.1,24.1,25,30.17,10.0,NNE,5.8,-,N/A,,Clear,30,2011-10-19 00:53:00
8:53 PM,59.0,24.1,26,30.18,10.0,Calm,Calm,-,N/A,,Clear,0,2011-10-19 01:53:00
9:53 PM,57.0,24.1,28,30.19,10.0,NNE,3.5,-,N/A,,Clear,30,2011-10-19 02:53:00